Time;durP1;ratioP1;P1;durP2;ratioP2;P2;SDS_P1;SDS_P2;PMS_P1;PMS_P2;Temp;Humidity;BMP_temperature;BMP_pressure;BME280_temperature;BME280_humidity;BME280_pressure;Samples;Min_cycle;Max_cycle;Signal;HPM_P1;HPM_P2
2022/09/02 00:00:11;;;;;;;13.85;12.20;;;28.10;99.90;;;;;;1919285;74;21646;-83
2022/09/02 00:02:43;;;;;;;15.93;12.93;;;28.10;99.90;;;;;;1917388;73;21147;-82
2022/09/02 00:05:15;;;;;;;15.60;11.97;;;28.20;99.90;;;;;;1924473;74;21689;-82
2022/09/02 00:07:46;;;;;;;12.95;11.22;;;28.20;99.90;;;;;;1929355;73;21099;-82
2022/09/02 00:10:19;;;;;;;16.50;11.75;;;28.20;99.90;;;;;;1926728;73;21138;-82
2022/09/02 00:12:50;;;;;;;14.87;11.25;;;28.30;99.90;;;;;;1927205;73;21586;-82
2022/09/02 00:15:22;;;;;;;17.42;11.85;;;28.30;99.90;;;;;;1944836;73;21547;-83
2022/09/02 00:17:55;;;;;;;14.28;10.35;;;28.30;99.90;;;;;;1931590;73;21187;-81
2022/09/02 00:20:29;;;;;;;15.45;11.00;;;28.30;99.90;;;;;;1931328;73;21127;-82
2022/09/02 00:23:01;;;;;;;15.23;11.28;;;28.40;99.90;;;;;;1930037;73;21635;-70
2022/09/02 00:25:43;;;;;;;15.25;11.20;;;28.40;99.90;;;;;;1935676;73;21155;-72
2022/09/02 00:28:13;;;;;;;15.03;11.63;;;28.40;99.90;;;;;;1850108;76;21144;-71
2022/09/02 00:30:48;;;;;;;16.93;10.93;;;28.50;99.90;;;;;;1857417;76;21171;-71
2022/09/02 00:33:19;;;;;;;14.13;11.28;;;28.60;99.90;;;;;;1859161;76;22183;-70
2022/09/02 00:35:54;;;;;;;16.00;11.53;;;28.60;99.90;;;;;;1942657;73;21652;-71
2022/09/02 00:38:26;;;;;;;20.00;10.95;;;28.60;99.90;;;;;;1890183;74;21146;-71
2022/09/02 00:41:00;;;;;;;12.10;9.68;;;28.70;99.90;;;;;;1891726;75;21162;-72
2022/09/02 00:43:34;;;;;;;13.45;9.95;;;28.70;99.90;;;;;;1912501;74;21663;-71
2022/09/02 00:46:06;;;;;;;15.60;11.03;;;28.80;99.90;;;;;;1944479;73;21218;-71
2022/09/02 00:48:40;;;;;;;13.98;10.08;;;28.80;99.90;;;;;;1943270;73;21127;-71
2022/09/02 00:51:14;;;;;;;112.17;18.77;;;28.90;99.90;;;;;;1927955;73;21082;-71
2022/09/02 00:53:48;;;;;;;15.38;10.05;;;29.00;99.90;;;;;;1929804;73;21165;-72
2022/09/02 00:56:22;;;;;;;12.55;9.35;;;29.00;99.90;;;;;;1926995;73;21071;-72
2022/09/02 00:58:55;;;;;;;12.10;10.30;;;29.10;99.90;;;;;;1927957;73;21594;-71
2022/09/02 01:01:27;;;;;;;15.32;10.10;;;29.10;99.90;;;;;;1924032;74;21185;-72
2022/09/02 01:03:58;;;;;;;15.78;9.33;;;29.10;99.90;;;;;;1960469;72;21149;-72
2022/09/02 01:06:32;;;;;;;14.07;9.55;;;29.20;99.80;;;;;;1968051;71;21204;-72
2022/09/02 01:09:07;;;;;;;11.10;8.93;;;29.30;99.60;;;;;;1968034;71;21559;-70
2022/09/02 01:11:41;;;;;;;12.63;8.60;;;29.30;99.10;;;;;;1967212;71;21099;-72
2022/09/02 01:14:12;;;;;;;11.10;9.63;;;29.40;99.10;;;;;;1956848;71;21138;-70
2022/09/02 01:16:46;;;;;;;11.95;9.23;;;29.40;98.70;;;;;;1973537;71;21101;-70
2022/09/02 01:19:21;;;;;;;12.58;10.45;;;29.40;99.00;;;;;;1966439;71;21115;-71
2022/09/02 01:21:56;;;;;;;11.28;9.75;;;29.40;99.00;;;;;;1968439;71;21170;-71
2022/09/02 01:24:33;;;;;;;13.55;10.13;;;29.40;99.10;;;;;;1974546;71;21567;-72
2022/09/02 01:27:05;;;;;;;11.68;9.65;;;29.40;99.20;;;;;;1967193;71;21122;-71
2022/09/02 01:29:36;;;;;;;9.70;8.68;;;29.50;99.30;;;;;;1963128;71;21184;-72
2022/09/02 01:32:08;;;;;;;13.28;9.53;;;29.50;99.10;;;;;;1968561;71;21588;-72
2022/09/02 01:34:40;;;;;;;10.25;8.43;;;29.60;99.00;;;;;;1966912;71;21122;-72
2022/09/02 01:37:12;;;;;;;10.90;9.13;;;29.60;98.60;;;;;;1967617;71;21102;-72
2022/09/02 01:39:44;;;;;;;9.55;8.03;;;29.60;98.60;;;;;;1962705;71;21144;-72
2022/09/02 01:42:16;;;;;;;11.73;8.03;;;29.70;98.80;;;;;;1963067;71;21194;-70
2022/09/02 01:44:48;;;;;;;8.78;7.33;;;29.70;98.60;;;;;;1972774;71;21526;-71
2022/09/02 01:47:25;;;;;;;10.85;7.95;;;29.80;98.40;;;;;;1964688;71;21563;-72
2022/09/02 01:49:56;;;;;;;8.85;7.15;;;29.80;98.00;;;;;;1929707;73;21606;-72
2022/09/02 01:52:29;;;;;;;9.13;6.78;;;29.90;97.80;;;;;;1907171;74;21167;-71
2022/09/02 01:55:00;;;;;;;9.50;7.20;;;29.90;97.80;;;;;;1923792;74;21709;-71
2022/09/02 01:57:31;;;;;;;10.58;7.55;;;30.00;97.80;;;;;;1962955;71;21221;-71
2022/09/02 02:00:03;;;;;;;11.93;7.80;;;30.10;97.80;;;;;;1960117;72;21106;-72
2022/09/02 02:02:34;;;;;;;9.93;7.30;;;30.20;97.50;;;;;;1917700;73;21701;-72
2022/09/02 02:05:05;;;;;;;10.93;7.50;;;30.20;97.50;;;;;;1883923;75;21096;-72
2022/09/02 02:07:37;;;;;;;8.48;7.08;;;30.30;97.50;;;;;;1901851;73;21131;-71
2022/09/02 02:10:11;;;;;;;9.50;7.30;;;30.40;97.40;;;;;;1898741;74;21137;-71
2022/09/02 02:12:43;;;;;;;9.58;7.40;;;30.50;97.30;;;;;;1915133;73;21271;-73
2022/09/02 02:15:17;;;;;;;8.95;7.00;;;30.60;97.00;;;;;;1919995;74;21590;-73
2022/09/02 02:17:48;;;;;;;11.12;7.17;;;30.60;96.20;;;;;;1913876;74;21143;-72
2022/09/02 02:20:20;;;;;;;8.48;6.75;;;30.70;96.50;;;;;;1910474;73;21260;-72
2022/09/02 02:22:51;;;;;;;9.28;6.85;;;30.80;96.20;;;;;;1880994;75;21184;-73
2022/09/02 02:25:22;;;;;;;10.65;6.22;;;30.90;95.50;;;;;;1885025;75;21158;-72
2022/09/02 02:27:53;;;;;;;9.75;6.58;;;30.90;95.50;;;;;;1884859;75;21583;-72
2022/09/02 02:30:24;;;;;;;6.90;6.20;;;31.00;95.30;;;;;;1879043;76;21190;-73
2022/09/02 02:32:55;;;;;;;8.08;6.53;;;31.00;95.60;;;;;;1914346;73;21231;-71
2022/09/02 02:35:26;;;;;;;7.25;6.40;;;31.10;95.50;;;;;;1907819;74;21098;-72
2022/09/02 02:37:57;;;;;;;9.23;6.10;;;31.10;95.70;;;;;;1910708;73;21193;-72
2022/09/02 02:40:29;;;;;;;9.03;7.45;;;31.10;95.10;;;;;;1875848;76;21255;-71
2022/09/02 02:43:01;;;;;;;8.75;6.97;;;31.10;95.00;;;;;;1879405;76;21104;-72
2022/09/02 02:45:32;;;;;;;9.93;6.80;;;31.20;95.10;;;;;;1883046;75;21153;-71
2022/09/02 02:48:03;;;;;;;8.53;6.08;;;31.30;95.20;;;;;;1905652;74;21747;-71
2022/09/02 02:50:34;;;;;;;6.80;6.17;;;31.40;94.90;;;;;;1918894;74;21184;-71
2022/09/02 02:53:07;;;;;;;8.85;7.00;;;31.50;94.70;;;;;;1964792;72;21184;-71
2022/09/02 02:55:40;;;;;;;8.75;6.80;;;31.50;94.50;;;;;;1875112;76;21187;-72
2022/09/02 02:58:11;;;;;;;8.63;6.45;;;31.60;94.70;;;;;;1920545;73;21072;-72
2022/09/02 03:00:45;;;;;;;6.87;5.80;;;31.60;94.30;;;;;;1872484;76;21504;-72
2022/09/02 03:03:18;;;;;;;8.55;6.90;;;31.60;94.40;;;;;;1888519;75;21173;-72
2022/09/02 03:05:50;;;;;;;8.55;6.10;;;31.70;94.30;;;;;;1927543;74;21610;-71
2022/09/02 03:08:24;;;;;;;8.23;5.58;;;31.80;93.60;;;;;;1923333;73;21666;-71
2022/09/02 03:10:56;;;;;;;7.78;6.42;;;31.80;93.60;;;;;;1913926;73;21734;-70
2022/09/02 03:13:28;;;;;;;14.05;6.53;;;31.90;93.60;;;;;;1919159;73;21156;-70
2022/09/02 03:16:00;;;;;;;8.55;5.75;;;31.90;93.40;;;;;;1915856;73;21136;-71
2022/09/02 03:18:32;;;;;;;8.23;6.42;;;32.00;93.20;;;;;;1929954;73;21659;-71
2022/09/02 03:21:07;;;;;;;6.60;5.87;;;32.00;93.20;;;;;;1887807;75;21660;-71
2022/09/02 03:23:38;;;;;;;8.73;5.92;;;32.10;93.10;;;;;;1881843;75;21119;-72
2022/09/02 03:26:11;;;;;;;9.68;5.37;;;32.10;92.40;;;;;;1886041;76;21209;-73
2022/09/02 03:28:42;;;;;;;6.00;4.70;;;32.30;92.30;;;;;;1886276;75;21642;-72
2022/09/02 03:31:15;;;;;;;5.37;4.70;;;32.40;91.90;;;;;;1914477;74;21520;-71
2022/09/02 03:33:46;;;;;;;5.95;3.98;;;32.50;91.50;;;;;;1883128;75;22111;-72
2022/09/02 03:36:20;;;;;;;5.20;3.83;;;32.60;91.00;;;;;;1884267;75;21166;-72
2022/09/02 03:38:51;;;;;;;6.65;4.30;;;32.70;91.00;;;;;;1910339;74;21726;-71
2022/09/02 03:41:22;;;;;;;6.17;5.00;;;32.80;90.60;;;;;;1921461;74;21555;-72
2022/09/02 03:43:53;;;;;;;4.30;3.87;;;32.90;90.70;;;;;;1969717;72;21532;-72
2022/09/02 03:46:25;;;;;;;5.42;3.37;;;33.00;90.30;;;;;;1918591;74;21554;-71
2022/09/02 03:48:56;;;;;;;5.03;3.83;;;33.10;89.00;;;;;;1917171;74;21073;-71
2022/09/02 03:51:28;;;;;;;6.75;4.50;;;33.20;89.30;;;;;;1920536;74;21121;-71
2022/09/02 03:53:59;;;;;;;7.78;4.53;;;33.20;90.50;;;;;;1885725;76;21149;-71
2022/09/02 03:56:30;;;;;;;6.42;4.78;;;33.30;90.20;;;;;;1888229;76;21601;-71
2022/09/02 03:59:01;;;;;;;7.30;4.47;;;33.30;90.00;;;;;;1883289;76;21504;-71
2022/09/02 04:01:33;;;;;;;4.97;4.37;;;33.30;90.20;;;;;;1883794;75;21091;-71
2022/09/02 04:04:06;;;;;;;5.95;5.25;;;33.30;90.40;;;;;;1914122;74;21549;-72
2022/09/02 04:06:38;;;;;;;5.40;4.50;;;33.30;90.70;;;;;;1921634;74;21684;-72
2022/09/02 04:09:09;;;;;;;7.50;4.62;;;33.40;89.30;;;;;;1911097;74;21231;-72
2022/09/02 04:11:43;;;;;;;5.85;4.05;;;33.50;89.30;;;;;;1904575;73;21631;-72
2022/09/02 04:14:12;;;;;;;5.67;4.50;;;33.50;88.50;;;;;;1914146;74;21823;-72
2022/09/02 04:16:44;;;;;;;5.25;4.22;;;33.50;89.30;;;;;;1914234;73;21163;-72
2022/09/02 04:19:15;;;;;;;5.90;4.60;;;33.60;87.60;;;;;;1901006;74;21668;-71
2022/09/02 04:21:46;;;;;;;5.85;4.42;;;33.60;87.40;;;;;;1898330;74;21551;-71
2022/09/02 04:24:17;;;;;;;7.05;3.80;;;33.60;88.20;;;;;;1957724;72;21810;-71
2022/09/02 04:26:48;;;;;;;5.95;4.05;;;33.70;86.00;;;;;;1885188;74;21167;-72
2022/09/02 04:29:19;;;;;;;9.00;4.28;;;33.80;86.30;;;;;;1939599;73;21543;-71
2022/09/02 04:31:52;;;;;;;5.72;4.28;;;33.80;85.40;;;;;;1863919;75;21115;-72
2022/09/02 04:34:22;;;;;;;5.67;4.50;;;33.90;86.70;;;;;;1906539;73;21688;-71
2022/09/02 04:36:54;;;;;;;5.08;4.05;;;34.00;85.60;;;;;;1915045;74;21640;-72
2022/09/02 04:39:25;;;;;;;4.50;4.10;;;34.00;84.20;;;;;;1902734;74;21083;-71
2022/09/02 04:41:56;;;;;;;5.50;3.90;;;34.10;83.20;;;;;;1868219;75;21666;-72
2022/09/02 04:44:26;;;;;;;5.30;4.30;;;34.00;83.20;;;;;;1917132;74;21670;-71
2022/09/02 04:46:57;;;;;;;4.10;3.70;;;34.00;84.40;;;;;;1871812;76;21107;-72
2022/09/02 04:49:30;;;;;;;4.90;4.10;;;34.00;84.40;;;;;;1918335;74;21213;-71
2022/09/02 04:52:01;;;;;;;4.47;4.00;;;33.90;83.20;;;;;;1954364;73;21107;-72
2022/09/02 04:54:32;;;;;;;4.37;3.85;;;33.80;84.40;;;;;;1884499;76;21129;-72
2022/09/02 04:57:03;;;;;;;5.10;4.40;;;33.80;83.70;;;;;;1896284;75;21159;-72
2022/09/02 04:59:35;;;;;;;5.00;4.50;;;33.80;84.40;;;;;;1886994;75;21568;-71
2022/09/02 05:02:07;;;;;;;5.58;4.40;;;33.80;84.40;;;;;;1916272;74;21155;-71
2022/09/02 05:04:38;;;;;;;5.25;4.25;;;33.90;84.90;;;;;;1904987;73;21613;-73
2022/09/02 05:07:10;;;;;;;8.20;4.00;;;33.90;84.10;;;;;;1893481;74;21542;-71
2022/09/02 05:09:41;;;;;;;6.10;4.35;;;33.90;85.10;;;;;;1878567;75;21706;-72
2022/09/02 05:12:13;;;;;;;5.65;3.80;;;34.00;84.80;;;;;;1877217;75;22040;-71
2022/09/02 05:14:47;;;;;;;6.33;4.17;;;34.10;81.80;;;;;;1890433;76;21586;-72
2022/09/02 05:17:17;;;;;;;4.47;3.45;;;34.10;81.30;;;;;;1910813;75;21666;-72
2022/09/02 05:19:49;;;;;;;5.22;3.60;;;34.10;81.10;;;;;;1884525;76;21071;-72
2022/09/02 05:22:20;;;;;;;4.50;3.72;;;34.20;81.40;;;;;;1886928;74;21175;-72
2022/09/02 05:24:51;;;;;;;6.17;3.83;;;34.30;80.90;;;;;;1912500;74;21169;-71
2022/09/02 05:27:32;;;;;;;4.03;3.62;;;34.30;82.20;;;;;;1921575;73;21636;-71
2022/09/02 05:30:04;;;;;;;5.17;3.80;;;34.30;81.40;;;;;;1914012;74;21203;-70
2022/09/02 05:32:35;;;;;;;4.65;3.47;;;34.30;80.30;;;;;;1920251;73;21635;-72
2022/09/02 05:35:07;;;;;;;4.50;4.00;;;34.30;80.50;;;;;;1880703;76;21972;-72
2022/09/02 05:37:38;;;;;;;4.75;3.72;;;34.40;81.10;;;;;;1889906;76;21090;-71
2022/09/02 05:40:11;;;;;;;5.78;4.00;;;34.40;80.90;;;;;;1873828;76;21689;-71
2022/09/02 05:42:43;;;;;;;5.10;4.03;;;34.30;81.30;;;;;;1904156;74;21075;-72
2022/09/02 05:45:16;;;;;;;4.72;3.70;;;34.40;81.60;;;;;;1888494;75;21080;-73
2022/09/02 05:47:47;;;;;;;4.78;3.77;;;34.30;81.20;;;;;;1888081;76;21213;-70
2022/09/02 05:50:19;;;;;;;6.12;4.17;;;34.40;80.60;;;;;;1922116;74;21135;-71
2022/09/02 05:52:51;;;;;;;5.37;4.37;;;34.40;81.20;;;;;;1883374;76;21679;-72
2022/09/02 05:55:22;;;;;;;4.20;3.77;;;34.50;81.40;;;;;;1909648;74;21487;-72
2022/09/02 05:57:53;;;;;;;4.60;4.12;;;34.50;81.90;;;;;;1898873;74;21162;-71
2022/09/02 06:00:24;;;;;;;5.80;4.58;;;34.50;81.80;;;;;;1915631;74;21754;-73
2022/09/02 06:02:56;;;;;;;5.40;4.42;;;34.60;80.90;;;;;;1911848;74;22348;-73
2022/09/02 06:05:28;;;;;;;5.75;3.90;;;34.70;81.00;;;;;;1880665;75;21579;-72
2022/09/02 06:08:00;;;;;;;5.87;4.35;;;34.80;80.30;;;;;;1881878;75;21189;-70
2022/09/02 06:11:01;;;;;;;5.25;4.35;;;35.00;80.20;;;;;;1920309;74;22096;-72
2022/09/02 06:13:34;;;;;;;4.42;3.87;;;35.00;80.30;;;;;;1921890;74;21076;-74
2022/09/02 06:16:07;;;;;;;4.85;4.15;;;35.00;79.60;;;;;;1887326;76;21083;-74
2022/09/02 06:18:38;;;;;;;5.40;4.65;;;35.00;78.50;;;;;;1910251;74;21089;-72
2022/09/02 06:21:09;;;;;;;5.67;4.00;;;35.00;78.50;;;;;;1898345;74;21182;-72
2022/09/02 06:23:41;;;;;;;5.42;3.72;;;35.00;79.00;;;;;;1883997;76;21120;-73
2022/09/02 06:26:13;;;;;;;7.58;4.55;;;35.00;78.60;;;;;;1935223;73;21620;-72
2022/09/02 06:28:44;;;;;;;5.20;4.70;;;35.00;79.70;;;;;;1878744;76;21697;-72
2022/09/02 06:31:18;;;;;;;4.60;3.95;;;35.00;79.70;;;;;;1885583;76;21623;-73
2022/09/02 06:33:51;;;;;;;6.28;4.95;;;34.90;80.30;;;;;;1968989;72;21810;-72
2022/09/02 06:36:24;;;;;;;6.22;5.12;;;35.00;80.00;;;;;;1956495;72;21065;-72
2022/09/02 06:38:58;;;;;;;5.10;4.40;;;34.90;80.30;;;;;;1969210;73;21128;-73
2022/09/02 06:41:32;;;;;;;5.72;5.00;;;34.90;80.40;;;;;;1969750;72;21106;-72
2022/09/02 06:44:05;;;;;;;5.08;4.30;;;34.90;81.10;;;;;;1956183;72;21197;-73
2022/09/02 06:46:38;;;;;;;6.45;4.60;;;34.80;80.80;;;;;;1962781;72;21572;-73
2022/09/02 06:49:11;;;;;;;5.00;4.50;;;34.90;80.70;;;;;;1961162;72;21123;-72
2022/09/02 06:51:44;;;;;;;6.25;4.50;;;34.70;80.50;;;;;;1962931;73;21111;-73
2022/09/02 06:54:18;;;;;;;6.33;4.60;;;34.70;83.00;;;;;;1963884;72;21192;-73
2022/09/02 06:56:50;;;;;;;6.70;4.40;;;34.80;80.40;;;;;;1967759;72;21079;-72
2022/09/02 06:59:22;;;;;;;5.00;4.28;;;34.80;80.30;;;;;;1959198;73;21136;-71
2022/09/02 07:01:53;;;;;;;9.25;4.65;;;34.80;80.20;;;;;;1960030;72;21496;-72
2022/09/02 07:06:57;;;;;;;4.60;3.80;;;34.60;80.50;;;;;;1966805;73;21125;-70
2022/09/02 07:09:31;;;;;;;4.80;4.20;;;34.50;80.70;;;;;;1950497;73;21640;-72
2022/09/02 07:12:03;;;;;;;5.40;4.05;;;34.40;82.00;;;;;;1966984;71;21597;-72
2022/09/02 07:14:36;;;;;;;7.40;4.50;;;34.30;81.50;;;;;;1964079;73;21091;-71
2022/09/02 07:17:09;;;;;;;4.90;4.42;;;34.20;81.70;;;;;;1961282;73;21561;-70
2022/09/02 07:19:40;;;;;;;5.70;4.25;;;34.20;82.00;;;;;;1959513;73;21119;-72
2022/09/02 07:22:11;;;;;;;5.55;4.20;;;34.20;82.30;;;;;;1951054;73;21119;-71
2022/09/02 07:24:43;;;;;;;4.95;4.40;;;34.20;82.30;;;;;;1950882;72;21164;-71
2022/09/02 07:27:15;;;;;;;6.00;4.50;;;34.20;81.60;;;;;;1953388;73;21467;-71
2022/09/02 07:29:47;;;;;;;7.08;4.42;;;34.20;81.50;;;;;;1960462;73;21147;-72
2022/09/02 07:32:20;;;;;;;4.90;4.40;;;34.20;82.30;;;;;;1956498;73;21200;-72
2022/09/02 07:34:51;;;;;;;5.67;3.98;;;34.30;81.60;;;;;;1909302;75;21644;-71
2022/09/02 07:37:22;;;;;;;6.03;3.87;;;34.30;80.30;;;;;;1877333;76;21658;-72
2022/09/02 07:39:53;;;;;;;5.50;4.22;;;34.30;81.00;;;;;;1881354;76;21561;-72
2022/09/02 07:42:24;;;;;;;5.83;4.58;;;34.30;81.20;;;;;;1917879;74;21113;-71
2022/09/02 07:44:56;;;;;;;4.08;3.67;;;34.30;80.90;;;;;;1885964;76;21107;-71
2022/09/02 07:47:26;;;;;;;4.80;4.10;;;34.30;80.60;;;;;;1912546;74;21197;-71
2022/09/02 07:49:57;;;;;;;5.05;4.20;;;34.30;80.80;;;;;;1900430;74;21176;-71
2022/09/02 07:52:30;;;;;;;6.20;4.70;;;34.30;81.30;;;;;;1910973;74;21132;-72
2022/09/02 07:55:01;;;;;;;4.30;3.90;;;34.40;81.10;;;;;;1922353;73;21220;-72
2022/09/02 07:57:32;;;;;;;5.75;4.40;;;34.30;81.80;;;;;;1917029;73;21139;-72
2022/09/02 08:00:05;;;;;;;5.50;4.95;;;34.40;81.50;;;;;;1932600;73;21181;-72
2022/09/02 08:02:36;;;;;;;5.60;4.15;;;34.30;80.90;;;;;;1920305;74;21157;-71
2022/09/02 08:05:08;;;;;;;5.00;4.50;;;34.30;80.80;;;;;;1916112;74;21169;-72
2022/09/02 08:07:39;;;;;;;5.20;3.85;;;34.30;80.70;;;;;;1914244;74;21660;-73
2022/09/02 08:10:11;;;;;;;5.62;4.22;;;34.30;81.20;;;;;;1881234;75;21137;-73
2022/09/02 08:12:45;;;;;;;6.87;4.50;;;34.30;81.60;;;;;;1884070;75;21127;-73
2022/09/02 08:15:18;;;;;;;5.55;4.30;;;34.30;81.50;;;;;;1870180;76;21618;-72
2022/09/02 08:17:50;;;;;;;6.65;4.37;;;34.20;81.20;;;;;;1874526;76;21209;-72
2022/09/02 08:20:22;;;;;;;5.72;5.03;;;34.20;81.20;;;;;;1918669;74;21137;-71
2022/09/02 08:22:53;;;;;;;5.62;4.78;;;34.20;81.30;;;;;;1918248;74;21153;-72
2022/09/02 08:25:25;;;;;;;6.33;4.70;;;34.30;81.10;;;;;;1914142;74;21196;-71
2022/09/02 08:27:56;;;;;;;5.10;4.33;;;34.30;81.90;;;;;;1920749;74;21205;-72
2022/09/02 08:30:28;;;;;;;5.22;4.72;;;34.30;82.30;;;;;;1876949;76;21671;-73
2022/09/02 08:32:59;;;;;;;5.92;4.80;;;34.30;81.30;;;;;;1912994;75;21115;-71
2022/09/02 08:35:30;;;;;;;7.90;4.85;;;34.30;80.70;;;;;;1883196;76;21205;-71
2022/09/02 08:38:01;;;;;;;7.25;5.08;;;34.20;82.20;;;;;;1904675;75;22020;-71
2022/09/02 08:40:34;;;;;;;6.72;4.78;;;34.20;80.70;;;;;;1901841;75;21139;-71
2022/09/02 08:43:08;;;;;;;5.33;4.40;;;34.20;81.00;;;;;;1898598;74;21793;-71
2022/09/02 08:45:40;;;;;;;7.10;4.45;;;34.20;81.10;;;;;;1900321;75;21142;-71
2022/09/02 08:48:13;;;;;;;5.10;4.55;;;34.20;80.60;;;;;;1922760;73;21139;-70
2022/09/02 08:50:46;;;;;;;5.30;4.70;;;34.20;80.80;;;;;;1934482;73;21136;-72
2022/09/02 08:53:17;;;;;;;4.95;4.45;;;34.10;80.80;;;;;;1926902;73;21135;-72
2022/09/02 08:55:52;;;;;;;7.00;4.47;;;34.00;82.00;;;;;;1909053;75;21142;-72
2022/09/02 08:58:27;;;;;;;5.12;4.47;;;33.90;81.10;;;;;;1906381;75;21609;-72
2022/09/02 09:01:02;;;;;;;5.62;4.37;;;33.80;81.10;;;;;;1859395;76;21194;-70
2022/09/02 09:03:37;;;;;;;5.50;4.75;;;33.80;81.20;;;;;;1913840;74;21274;-71
2022/09/02 09:06:11;;;;;;;5.62;4.72;;;33.80;81.50;;;;;;1905330;75;21177;-71
2022/09/02 09:08:44;;;;;;;4.75;4.33;;;33.80;81.10;;;;;;1901897;73;21236;-70
2022/09/02 09:11:16;;;;;;;6.00;4.87;;;33.80;81.10;;;;;;1921320;74;21149;-72
2022/09/02 09:13:49;;;;;;;4.62;4.12;;;33.70;81.30;;;;;;1879621;76;21676;-72
2022/09/02 09:16:23;;;;;;;6.22;4.53;;;33.70;79.90;;;;;;1883472;75;21928;-71
2022/09/02 09:18:57;;;;;;;5.90;4.33;;;33.70;80.10;;;;;;1915568;73;21123;-70
2022/09/02 09:21:32;;;;;;;6.35;4.55;;;33.70;80.30;;;;;;1877226;75;21091;-71
2022/09/02 09:24:05;;;;;;;5.83;4.03;;;33.70;80.40;;;;;;1916151;73;21111;-71
2022/09/02 09:26:39;;;;;;;5.65;4.55;;;33.70;80.60;;;;;;1907485;75;21135;-71
2022/09/02 09:29:11;;;;;;;10.48;5.05;;;33.70;80.60;;;;;;1915803;74;21124;-71
2022/09/02 09:31:44;;;;;;;7.50;4.50;;;33.70;81.20;;;;;;1886229;75;21135;-73
2022/09/02 09:34:15;;;;;;;5.33;4.83;;;33.70;80.70;;;;;;1884821;75;21153;-70
2022/09/02 09:36:50;;;;;;;7.28;4.83;;;33.80;81.10;;;;;;1886688;75;21724;-71
2022/09/02 09:39:24;;;;;;;6.00;5.00;;;33.70;81.10;;;;;;1938632;73;21546;-70
2022/09/02 09:41:58;;;;;;;5.58;4.92;;;33.80;81.20;;;;;;1888081;74;21186;-70
2022/09/02 09:44:31;;;;;;;5.45;4.90;;;33.70;81.00;;;;;;1966825;72;21563;-71
2022/09/02 09:47:05;;;;;;;5.85;4.90;;;33.70;81.20;;;;;;1958191;72;21055;-71
2022/09/02 09:49:40;;;;;;;5.45;4.78;;;33.70;82.30;;;;;;1886655;76;21153;-70
2022/09/02 09:52:10;;;;;;;7.35;5.30;;;33.70;81.30;;;;;;1890050;75;21206;-72
2022/09/02 09:54:46;;;;;;;5.65;4.87;;;33.70;81.90;;;;;;1918564;73;21192;-71
2022/09/02 09:57:20;;;;;;;5.03;4.53;;;33.50;81.80;;;;;;1908265;74;21149;-73
2022/09/02 09:59:55;;;;;;;5.85;4.78;;;33.50;82.20;;;;;;1887433;74;21181;-71
2022/09/02 10:02:26;;;;;;;6.78;4.70;;;33.50;82.70;;;;;;1885551;75;21135;-72
2022/09/02 10:05:01;;;;;;;5.03;4.47;;;33.50;82.80;;;;;;1910837;73;21129;-72
2022/09/02 10:07:34;;;;;;;5.12;4.60;;;33.40;82.00;;;;;;1912714;74;21147;-72
2022/09/02 10:10:08;;;;;;;5.67;4.92;;;33.40;81.40;;;;;;1879945;76;21116;-72
2022/09/02 10:12:39;;;;;;;5.97;5.10;;;33.40;82.30;;;;;;1919923;74;21148;-71
2022/09/02 10:15:11;;;;;;;6.80;5.08;;;33.40;82.20;;;;;;1880353;75;21115;-72
2022/09/02 10:17:43;;;;;;;5.20;4.70;;;33.40;82.50;;;;;;1884358;76;21126;-72
2022/09/02 10:20:16;;;;;;;6.28;4.97;;;33.40;82.70;;;;;;1873626;76;21192;-71
2022/09/02 10:22:50;;;;;;;6.00;5.10;;;33.30;83.00;;;;;;1886626;75;22041;-70
2022/09/02 10:25:23;;;;;;;6.15;4.70;;;33.30;82.70;;;;;;1918167;74;21685;-71
2022/09/02 10:27:59;;;;;;;7.45;4.97;;;33.30;82.90;;;;;;1918455;74;21180;-71
2022/09/02 10:30:31;;;;;;;8.05;5.70;;;33.30;83.20;;;;;;1882806;76;21120;-72
2022/09/02 10:33:04;;;;;;;7.65;5.75;;;33.20;83.30;;;;;;1917923;74;21123;-72
2022/09/02 10:35:38;;;;;;;6.37;5.35;;;33.20;83.50;;;;;;1912917;74;22299;-72
2022/09/02 10:38:11;;;;;;;6.70;5.03;;;33.20;83.70;;;;;;1910738;74;21231;-71
2022/09/02 10:40:46;;;;;;;6.00;5.40;;;33.20;84.00;;;;;;1886650;76;21661;-73
2022/09/02 10:43:19;;;;;;;5.50;4.92;;;33.20;84.10;;;;;;1883740;75;21092;-74
2022/09/02 10:45:53;;;;;;;5.90;5.10;;;33.20;84.00;;;;;;1925003;73;21504;-73
2022/09/02 10:48:26;;;;;;;6.90;5.05;;;33.20;84.10;;;;;;1920375;73;21075;-72
2022/09/02 10:50:58;;;;;;;7.72;5.00;;;33.20;84.10;;;;;;1887312;76;21688;-72
2022/09/02 10:53:30;;;;;;;8.65;5.40;;;33.10;85.00;;;;;;1885226;75;21087;-85
2022/09/02 10:56:04;;;;;;;7.05;5.42;;;33.10;84.30;;;;;;1920243;74;21528;-85
2022/09/02 10:58:37;;;;;;;6.08;5.47;;;33.10;83.40;;;;;;1896841;73;21142;-86
2022/09/02 11:01:13;;;;;;;7.40;5.62;;;33.10;84.30;;;;;;1922279;74;21135;-86
2022/09/02 11:03:47;;;;;;;7.53;5.80;;;33.00;84.30;;;;;;1886202;76;21084;-85
2022/09/02 11:06:21;;;;;;;6.90;6.20;;;33.00;84.60;;;;;;1882094;74;21161;-85
2022/09/02 11:08:55;;;;;;;5.85;5.25;;;33.00;84.90;;;;;;1872011;76;21084;-85
2022/09/02 11:11:27;;;;;;;7.90;6.58;;;33.00;85.20;;;;;;1859837;75;21631;-84
2022/09/02 11:14:00;;;;;;;8.83;6.87;;;32.90;85.50;;;;;;1911359;73;21143;-84
2022/09/02 11:16:32;;;;;;;8.80;7.25;;;32.90;85.90;;;;;;1884315;76;21160;-85
2022/09/02 11:19:08;;;;;;;9.10;6.95;;;32.90;86.60;;;;;;1897672;74;21538;-84
2022/09/02 11:21:40;;;;;;;9.85;6.97;;;32.90;87.10;;;;;;1903140;75;21150;-85
2022/09/02 11:24:12;;;;;;;9.73;6.37;;;32.80;87.80;;;;;;1911977;74;21631;-85
2022/09/02 11:26:45;;;;;;;8.13;6.30;;;32.80;87.80;;;;;;1867851;76;21151;-85
2022/09/02 11:29:17;;;;;;;10.80;7.80;;;32.70;88.00;;;;;;1887164;74;21198;-85
2022/09/02 11:31:50;;;;;;;9.48;7.30;;;32.70;88.30;;;;;;1918636;74;21091;-84
2022/09/02 11:34:22;;;;;;;8.55;7.20;;;32.70;88.50;;;;;;1880519;76;21091;-86
2022/09/02 11:36:53;;;;;;;9.18;7.55;;;32.70;88.60;;;;;;1886412;74;21186;-85
2022/09/02 11:39:26;;;;;;;8.98;7.25;;;32.60;89.50;;;;;;1911311;74;21091;-85
2022/09/02 11:42:01;;;;;;;9.85;7.60;;;32.60;90.30;;;;;;1894883;74;21170;-85
2022/09/02 11:44:34;;;;;;;8.83;5.78;;;32.50;90.40;;;;;;1884406;75;21198;-85
2022/09/02 11:47:06;;;;;;;7.12;5.78;;;32.40;89.40;;;;;;1923222;73;21352;-84
2022/09/02 11:49:40;;;;;;;8.25;4.80;;;32.30;90.10;;;;;;1971853;72;21190;-85
2022/09/02 11:52:13;;;;;;;5.53;4.05;;;32.00;90.30;;;;;;1950860;72;21123;-87
2022/09/02 11:54:47;;;;;;;7.30;2.92;;;31.70;90.20;;;;;;1884854;73;21131;-86
2022/09/02 11:57:21;;;;;;;5.15;2.50;;;31.30;86.60;;;;;;1971006;72;21173;-85
2022/09/02 11:59:51;;;;;;;3.00;2.00;;;30.90;88.40;;;;;;1975133;71;21126;-85
2022/09/02 12:02:24;;;;;;;2.83;1.27;;;30.50;88.40;;;;;;1969912;72;21657;-84
2022/09/02 12:04:58;;;;;;;2.77;1.55;;;30.30;87.20;;;;;;1957341;72;21866;-84
2022/09/02 12:07:30;;;;;;;3.20;1.50;;;30.10;87.70;;;;;;1961728;71;21281;-85
2022/09/02 12:10:04;;;;;;;3.62;2.00;;;29.90;88.00;;;;;;1969191;71;21126;-84
2022/09/02 12:12:35;;;;;;;4.75;2.30;;;29.80;88.80;;;;;;1962859;71;21197;-84
2022/09/02 12:15:07;;;;;;;5.72;2.35;;;29.70;89.50;;;;;;1955793;73;21174;-84
2022/09/02 12:17:38;;;;;;;4.47;2.27;;;29.70;88.70;;;;;;1955632;71;21549;-85
2022/09/02 12:20:12;;;;;;;3.52;1.82;;;29.70;89.10;;;;;;1950118;71;21640;-84
2022/09/02 12:22:43;;;;;;;3.12;1.50;;;29.70;88.80;;;;;;1931749;73;21152;-84
2022/09/02 12:25:17;;;;;;;3.47;1.20;;;29.70;88.00;;;;;;1952071;71;21190;-83
2022/09/02 12:27:50;;;;;;;3.85;1.72;;;29.70;86.90;;;;;;1888173;74;21073;-84
2022/09/02 12:30:23;;;;;;;3.55;1.30;;;29.70;88.30;;;;;;1906427;73;21102;-85
2022/09/02 12:32:55;;;;;;;2.70;1.20;;;29.70;88.40;;;;;;1913050;74;21166;-84
2022/09/02 12:35:30;;;;;;;1.95;1.07;;;29.70;88.00;;;;;;1881773;74;21146;-84
2022/09/02 12:38:03;;;;;;;5.03;1.20;;;29.70;88.20;;;;;;1904883;73;21166;-84
2022/09/02 12:40:37;;;;;;;5.78;1.40;;;29.70;88.20;;;;;;1879015;76;21660;-82
2022/09/02 12:43:11;;;;;;;4.05;1.45;;;29.80;87.40;;;;;;1883449;75;21201;-84
2022/09/02 12:45:44;;;;;;;2.42;1.60;;;29.80;87.60;;;;;;1891936;74;21209;-84
2022/09/02 12:48:19;;;;;;;4.83;2.10;;;29.90;88.10;;;;;;1886466;74;21125;-85
2022/09/02 12:50:54;;;;;;;4.17;2.00;;;29.90;89.20;;;;;;1848484;77;21154;-83
2022/09/02 12:53:28;;;;;;;7.22;2.58;;;29.90;90.10;;;;;;1866150;75;21207;-84
2022/09/02 12:56:03;;;;;;;4.78;2.40;;;29.80;90.70;;;;;;1875787;76;21131;-83
2022/09/02 12:58:34;;;;;;;6.58;2.62;;;29.70;91.20;;;;;;1922635;74;21599;-85
2022/09/02 13:01:07;;;;;;;4.58;3.40;;;29.70;91.50;;;;;;1919700;73;21072;-84
2022/09/02 13:03:39;;;;;;;5.83;3.42;;;29.60;91.70;;;;;;1864251;74;21085;-85
2022/09/02 13:06:12;;;;;;;4.20;3.27;;;29.60;92.00;;;;;;1889880;75;21213;-84
2022/09/02 13:08:45;;;;;;;6.28;4.42;;;29.50;92.20;;;;;;1883520;76;21112;-84
2022/09/02 13:11:19;;;;;;;5.80;4.28;;;29.50;92.70;;;;;;1916238;74;21788;-83
2022/09/02 13:13:52;;;;;;;6.95;4.42;;;29.50;93.00;;;;;;1865865;75;21096;-83